Current | Forecast
Updated: 10:30 PM +05 on October 21, 2017
Observed at Roschino, Russia
Temperature 28°F
Windchill 20°F
Humidity 74%
Dew Point 21°F
Wind WSW at 9 mph
Pressure 29.74 in (Steady)
Conditions Mostly Cloudy
Visibility 6.2 miles
UV 0 out of 16
Clouds Mostly Cloudy (BKN) : 5000 ft
Yesterday's Maximum 43°F
Yesterday's Minimum 36°F approx.
Yesterday's Heating Degree Days 26 approx.
Sunrise7:24 AM +05
Sunset5:23 PM +05
Moon Rise8:41 AM +05
Moon Set6:31 PM +05
Moon PhaseMoon Phase
Waxing Crescent
Raw METARMETAR USTR 211730Z 25004MPS 9999 BKN050CB M02/M06 Q1007 R30/CLRD65 NOSIG RMK QFE746/0994


Monday
. High: 66° F.
Tuesday
. High: 73° F.
Wednesday
. High: 73° F.
Thursday
. High: 64° F.
Friday
. High: 57° F.
Saturday
. High: 66° F.
Sunday
. High: 51° F.
Monday
. High: 59° F.

Units: English | Metric

Find the Weather for any City, State or Zipcode, or Country:

U.S. State List | Severe Weather | Tropical Storms | Ski Conditions
United States | Canada | Central America | South America | Asia | Europe | Australia | Africa | Islands

Weather Underground

© Copyright 2017
The Weather Company, LLC